Tiempo atmosférico en la estación meteorológica de Hijar, Teruel (300 m.)



Fecha
DESCASC
Temp. máxima en grados centígrados (hora)
DESCASC
Temp. mínima en grados centígrados (hora)
DESCASC
Temp. media en grados centígrados
DESCASC
Racha de viento máxima en m/sg (hora)
DESCASC
Velocidad máxima media en intervalos de 10 minutos(hora)
DESCASC
Precipitaciones diarias en mm
DESCASC
Precipitaciones de 00:00 a 06:00 en mm
DESCASC
Precipitaciones de 06:00 a 12:00 en mm
DESCASC
Precipitaciones de 12:00 a 18:00 en mm
DESCASC
Precipitaciones de 18:00 a 24:00 en mm
DESCASC
22-01-2020 6.7 (15:20) 2.3 (01:20) 4.5 5.83 (21:40) 3.61 (02:20) 2.4 0.2 0 0 2.2
21-01-2020 6.8 (17:30) 0 (01:30) 3.4 10 (17:20) 6.67 (17:20) 100.8 17.2 24.2 18.8 40.6
20-01-2020 1.9 (22:10) -0.1 (10:10) 0.9 7.78 (05:40) 3.89 (12:30) 16.2 0 2.6 4.6 9
19-01-2020 9.3 (00:20) 1.7 (00:00) 5.5 11.39 (01:50) 7.5 (01:50) 9 0 8.8 0 0.2
18-01-2020 11.5 (14:20) 3.6 (00:00) 7.5 11.39 (23:30) 5 (23:30) 0 0 0 0 0
17-01-2020 16.8 (14:10) 3.3 (00:00) 10 18.61 (13:40) 11.39 (13:30) 0 0 0 0 0
16-01-2020 11.9 (14:50) -0.7 (-00:0) 5.6 3.89 (02:40) 2.5 (13:00) 0 0 0 0 0
15-01-2020 8.1 (16:40) -5.7 (-00:0) 1.2 7.22 (21:50) 2.78 (21:50) 0 0 0 0 0
14-01-2020 3.4 (16:30) -6 (-00:0) -1.3 3.06 (14:50) 1.94 (21:10) 0 0 0 0 0
13-01-2020 0.5 (15:50) -4.5 (-00:0) -2 2.5 (16:10) 1.39 (11:30) 0 0 0 0 0
12-01-2020 10.6 (14:50) -2.4 (23:59) 4.1 5.56 (01:20) 4.17 (01:20) 0 0 0 0 0
11-01-2020 14 (14:50) 2 (00:00) 8 7.22 (12:00) 5 (02:10) 0 0 0 0 0
10-01-2020 12.1 (13:20) 1.6 (00:00) 6.9 10.83 (05:50) 6.39 (07:40) 0.2 0.2 0 0 0
09-01-2020 3.3 (16:10) 0.4 (00:00) 1.8 3.61 (15:40) 2.5 (15:40) 0 0 0 0 0
08-01-2020 3.1 (16:20) -0.3 (00:00) 1.4 2.78 (12:20) 1.67 (07:40) 0 0 0 0 0
07-01-2020 4.1 (14:20) -1.6 (-00:0) 1.2 3.89 (14:30) 2.22 (14:30) 0 0 0 0 0
06-01-2020 2.9 (16:00) -0.4 (00:00) 1.3 2.78 (14:30) 1.67 (05:20) 0 0 0 0 0
05-01-2020 11.9 (15:20) 1.6 (00:00) 6.7 5.28 (01:40) 3.89 (01:30) 0 0 0 0 0
04-01-2020 12.8 (16:30) -0.3 (00:00) 6.3 5.83 (19:00) 4.17 (05:00) 0 0 0 0 0
03-01-2020 5.7 (15:50) -0.8 (-00:0) 2.4 3.33 (06:30) 1.94 (18:30) 0 0 0 0 0
02-01-2020 0.4 (16:30) -0.9 (-00:0) -0.2 2.5 (11:30) 1.67 (11:30) 0 0 0 0 0
01-01-2020 2.3 (00:00) -0.2 (00:00) 1 2.78 (06:50) 2.22 (06:50) 0 0 0 0 0
31-12-2019 -- (--) -- (--) -- -- (--) -- (--) -- -- -- 0 0
30-12-2019 -- (--) -- (--) -- -- (--) -- (--) -- 0 0 0 --
29-12-2019 1.8 (14:20) -0.3 (00:00) 0.7 3.33 (00:40) 2.22 (00:40) 0 0 0 0 0
28-12-2019 4.3 (14:00) -1.8 (-00:0) 1.3 4.44 (11:50) 3.06 (11:50) 0 0 0 0 0
27-12-2019 11.8 (14:50) 0.6 (00:00) 6.2 5.28 (01:40) 4.17 (07:30) 0 0 0 0 0

Gráficas

Temp. máximas Temp. mínimas Temp. medias Precipitaciones Rachas de viento máximas Velocidades máximas media en intervalos de 10 minutos

Datos horarios

Fecha y hora oficial Temperatura (ºC) Velocidad del viento (km/h) Dirección del viento Racha (km/h) Dirección de racha Precipitación (mm) Presión (hPa) Tendencia (hPa) Humedad (%)
2020-01-25 23:00:00 7.7 6 Sudoeste 9 Sudoeste 0 -- -- 93
2020-01-25 22:00:00 7.8 5 Sudoeste 11 Sudoeste 0 -- -- 92
2020-01-25 21:00:00 8.1 5 Sudoeste 8 Sudoeste 0 -- -- 91
2020-01-25 20:00:00 8.7 4 Sudoeste 11 Sudoeste 0.2 -- -- 91
2020-01-25 19:00:00 9.2 3 Sudoeste 7 Sudoeste 0 -- -- 89
2020-01-25 18:00:00 10.1 4 Oeste 6 Sudoeste 0 -- -- 85
2020-01-25 17:00:00 10.9 0 Calma 5 Este 0 -- -- 78
2020-01-25 16:00:00 11.3 3 Sudeste 6 Nordeste 0 -- -- 74
2020-01-25 15:00:00 11.3 3 Nordeste 9 Este 0 -- -- 72
2020-01-25 14:00:00 10.6 2 Nordeste 5 Este 0 -- -- 77
2020-01-25 13:00:00 9.5 3 Norte 6 Oeste 0 -- -- 81
2020-01-25 12:00:00 7.6 0 Calma 6 Norte 0 -- -- 89
2020-01-25 11:00:00 6.8 2 Noroeste 10 Sudoeste 0 -- -- 86
2020-01-25 10:00:00 4.6 8 Sudoeste 13 Oeste 0 -- -- 90
2020-01-25 09:00:00 3.8 6 Sudoeste 11 Sudoeste 0 -- -- 92
2020-01-25 08:00:00 3.9 0 Calma 5 Sudoeste 0 -- -- 92
2020-01-25 07:00:00 4.3 3 Sudoeste 6 Sudoeste 0 -- -- 91
2020-01-25 06:00:00 4.7 3 Sudoeste 9 Sudoeste 0 -- -- 90
2020-01-25 05:00:00 4.8 4 Oeste 9 Sudoeste 0 -- -- 89
2020-01-25 04:00:00 4.7 4 Sudoeste 7 Sudoeste 0 -- -- 89
2020-01-25 03:00:00 4.6 4 Sudoeste 8 Sudoeste 0 -- -- 89
2020-01-25 02:00:00 4.6 3 Sudoeste 7 Sudoeste 0 -- -- 90
2020-01-25 01:00:00 5 0 Calma 7 Sudoeste 0 -- -- 91
2020-01-25 00:00:00 5.8 3 Sudoeste 6 Sudoeste 0 -- -- 91
2020-01-24 23:00:00 6.4 0 Calma 11 Este 0 -- -- 92
2020-01-24 22:00:00 6.4 3 Sudoeste 8 Sudoeste 0 -- -- 90
2020-01-24 21:00:00 6.6 4 Sudoeste 10 Sudoeste 0 -- -- 92
2020-01-24 20:00:00 6.7 4 Oeste 6 Oeste 0 -- -- 93
2020-01-24 19:00:00 7.7 0 Calma 7 Sudeste 0 -- -- 92
2020-01-24 18:00:00 8 2 Sudeste 3 Nordeste 0 -- -- 90
2020-01-24 17:00:00 8.2 0 Calma 6 Nordeste 0 -- -- 89
2020-01-24 16:00:00 8 4 Este 7 Sudeste 0 -- -- 87
2020-01-24 15:00:00 8.6 2 Norte 11 Nordeste 0 -- -- 85
2020-01-24 14:00:00 9.6 5 Nordeste 9 Nordeste 0 -- -- 80
2020-01-24 13:00:00 7.8 4 Nordeste 8 Nordeste 0 -- -- 89
2020-01-24 12:00:00 5.6 3 Nordeste 8 Nordeste 0 -- -- 98
2020-01-24 11:00:00 4.7 3 Sudeste 7 Este 0 -- -- 97
2020-01-24 10:00:00 3.1 2 Sudoeste 12 Sudoeste 0 -- -- 97
2020-01-24 09:00:00 1.8 5 Sudoeste 11 Sudoeste 0 -- -- 96
2020-01-24 08:00:00 2.1 8 Sudoeste 18 Oeste 0 -- -- 95
2020-01-24 07:00:00 2.8 6 Sudoeste 10 Sudoeste 0 -- -- 94
2020-01-24 06:00:00 3.5 9 Sudoeste 19 Sudoeste 0 -- -- 94
2020-01-24 05:00:00 4.2 6 Sudoeste 13 Sudoeste 0 -- -- 92
2020-01-24 04:00:00 5.1 7 Sudoeste 14 Sudoeste 0 -- -- 92
2020-01-24 03:00:00 5.2 11 Sudoeste 17 Sudoeste 0 -- -- 92
2020-01-24 02:00:00 5.8 6 Sudoeste 13 Sudoeste 0 -- -- 91
2020-01-24 01:00:00 6 6 Sudoeste 14 Sudoeste 0 -- -- 92
2020-01-24 00:00:00 6.2 5 Sudoeste 10 Sudoeste 0 -- -- 92
2020-01-23 23:00:00 6.3 3 Sudoeste 9 Oeste 0 -- -- 92
2020-01-23 22:00:00 7.1 0 Calma 12 Este 0 -- -- 91
2020-01-23 21:00:00 7.6 7 Este 13 Sudeste 0 -- -- 89
2020-01-23 20:00:00 7.9 5 Este 12 Este 0 -- -- 88
2020-01-23 19:00:00 8.3 10 Este 15 Este 0 -- -- 87
2020-01-23 18:00:00 8.7 8 Este 19 Nordeste 0 -- -- 85
2020-01-23 17:00:00 9.4 10 Nordeste 20 Este 0 -- -- 81
2020-01-23 16:00:00 9.9 12 Nordeste 21 Nordeste 0 -- -- 79
2020-01-23 15:00:00 10 6 Nordeste 15 Nordeste 0 -- -- 79
2020-01-23 14:00:00 10.1 8 Este 17 Nordeste 0 -- -- 79
2020-01-23 13:00:00 10.5 5 Nordeste 10 Nordeste 0 -- -- 75
2020-01-23 12:00:00 8.8 4 Este 7 Este 0 -- -- 84
2020-01-23 11:00:00 6.2 0 Calma 9 Sudoeste 0 -- -- 95
2020-01-23 10:00:00 3.6 3 Sudoeste 13 Sudoeste 0 -- -- 98
2020-01-23 09:00:00 2.9 10 Sudoeste 14 Sudoeste 0 -- -- 97
2020-01-23 08:00:00 3.4 11 Sudoeste 15 Sudoeste 0 -- -- 98
2020-01-23 07:00:00 3.7 9 Sudoeste 14 Sudoeste 0 -- -- 98
2020-01-23 06:00:00 3.8 10 Sudoeste 13 Sudoeste 0 -- -- 99
2020-01-23 05:00:00 3.9 6 Sudoeste 13 Sudoeste 0 -- -- 98
2020-01-23 04:00:00 3.8 7 Sudoeste 10 Sudoeste 0 -- -- 98
2020-01-23 03:00:00 3.7 7 Oeste 11 Oeste 0 -- -- 98
2020-01-23 02:00:00 4 4 Sudoeste 13 Sudoeste 0.2 -- -- 98
2020-01-23 01:00:00 4.2 5 Sudoeste 14 Sudoeste 0.4 -- -- 98
2020-01-23 00:00:00 4.1 6 Sudoeste 13 Sudoeste 1.2 -- -- 97
2020-01-22 23:00:00 4.2 9 Sudoeste 14 Sudoeste 0 -- -- 97
2020-01-22 22:00:00 4.3 8 Sudoeste 21 Sudoeste 0.4 -- -- 96
2020-01-22 21:00:00 4.4 10 Sudoeste 15 Sudoeste 0.2 -- -- 95
2020-01-22 20:00:00 4.6 10 Oeste 13 Sudoeste 0.4 -- -- 93
2020-01-22 19:00:00 4.9 10 Sudoeste 18 Sudoeste 0 -- -- 91
2020-01-22 18:00:00 5 12 Sudoeste 18 Sudoeste 0 -- -- 92
2020-01-22 17:00:00 5.6 8 Sudoeste 13 Sudoeste 0 -- -- 90
2020-01-22 16:00:00 6.2 8 Sudoeste 20 Sudoeste 0 -- -- 89
2020-01-22 15:00:00 6.1 12 Sudoeste 18 Sudoeste 0 -- -- 91
2020-01-22 14:00:00 4.9 10 Sudoeste 17 Sudoeste 0 -- -- 95
2020-01-22 13:00:00 4.7 10 Sudoeste 15 Sudoeste 0 -- -- 96
2020-01-22 12:00:00 4.2 10 Sudoeste 15 Sudoeste 0 -- -- 96
2020-01-22 11:00:00 3.5 7 Sudoeste 12 Sudoeste 0 -- -- 97
2020-01-22 10:00:00 3.2 3 Oeste 12 Sudoeste 0 -- -- 97
2020-01-22 09:00:00 3.1 8 Sudoeste 14 Sudoeste 0 -- -- 97
2020-01-22 08:00:00 3.1 10 Sudoeste 15 Sudoeste 0 -- -- 97
2020-01-22 07:00:00 3 11 Sudoeste 15 Sudoeste 0 -- -- 97
2020-01-22 06:00:00 2.7 11 Sudoeste 15 Sudoeste 0 -- -- 97
2020-01-22 05:00:00 2.6 10 Sudoeste 18 Oeste 0.2 -- -- 97
2020-01-22 04:00:00 2.5 12 Sudoeste 17 Sudoeste 0 -- -- 97
2020-01-22 03:00:00 2.5 9 Oeste 19 Sudoeste 0 -- -- 97
2020-01-22 02:00:00 2.4 12 Sudoeste 17 Sudoeste 0 -- -- 98
2020-01-22 01:00:00 2.4 9 Sudoeste 15 Oeste 0 -- -- 98
2020-01-22 00:00:00 2.5 10 Sudoeste 15 Oeste 0 -- -- 98
2020-01-21 23:00:00 3 10 Sudoeste 21 Sudoeste 5.6 -- -- 99
2020-01-21 22:00:00 4.1 5 Sur 13 Oeste 10.6 -- -- 99
2020-01-21 21:00:00 3.6 5 Sudoeste 12 Sudoeste 7 -- -- 98
2020-01-21 20:00:00 4.1 2 Oeste 6 Sudoeste 8 -- -- 98
2020-01-21 19:00:00 4.4 3 Norte 32 Sudeste 9.4 -- -- 97
2020-01-21 18:00:00 5.9 18 Sudeste 36 Nordeste 1.8 -- -- 99
2020-01-21 17:00:00 6.1 21 Nordeste 33 Este 2.8 -- -- 99
2020-01-21 16:00:00 4.1 0 Calma 19 Sudoeste 4.8 -- -- 99
2020-01-21 15:00:00 3.7 13 Sudoeste 20 Sudoeste 3.8 -- -- 98
2020-01-21 14:00:00 3.5 7 Sudoeste 13 Noroeste 3.6 -- -- 98
2020-01-21 13:00:00 2.7 5 Oeste 18 Oeste 2 -- -- 98
2020-01-21 12:00:00 2.2 12 Oeste 18 Oeste 2.6 -- -- 98
2020-01-21 11:00:00 1.6 6 Oeste 13 Noroeste 2.8 -- -- 98
2020-01-21 10:00:00 1 2 Sudoeste 5 Norte 2.8 -- -- 98
2020-01-21 09:00:00 0.4 0 Calma -- -- 2.4 -- -- 98
2020-01-21 08:00:00 0 0 Calma -- -- 6.8 -- -- 98
2020-01-21 07:00:00 0 0 Calma 0 Calma 6.8 -- -- 98
2020-01-21 06:00:00 0.1 0 Calma 20 Norte 5.8 -- -- 98
2020-01-21 05:00:00 0.8 5 Noroeste 15 Noroeste 2.6 -- -- 98
2020-01-21 04:00:00 0.4 3 Oeste 6 Oeste 1 -- -- 98
2020-01-21 03:00:00 0.1 0 Calma -- -- 2.4 -- -- 98
2020-01-21 02:00:00 0 0 Calma -- -- 2.8 -- -- 97
2020-01-21 01:00:00 0.1 0 Calma 8 Oeste 2.6 -- -- 97
2020-01-21 00:00:00 0.3 4 Oeste 13 Oeste 2.6 -- -- 96
2020-01-20 23:00:00 1.6 3 Noroeste 22 Norte 1.8 -- -- 96
2020-01-20 22:00:00 1.8 3 Noroeste 10 Oeste 2.6 -- -- 97
2020-01-20 21:00:00 1.7 6 Sudoeste 16 Oeste 1 -- -- 96
2020-01-20 20:00:00 1.5 7 Sudoeste 15 Sudoeste 1 -- -- 97
2020-01-20 19:00:00 1 12 Sudoeste 27 Oeste 0 -- -- 98
2020-01-20 18:00:00 0.6 14 Oeste 27 Oeste 0.8 -- -- 98
2020-01-20 17:00:00 0.3 12 Oeste 21 Oeste 1.4 -- -- 97
2020-01-20 16:00:00 0.6 11 Oeste 22 Oeste 0.8 -- -- 97
2020-01-20 15:00:00 0.5 9 Oeste 17 Oeste 0.8 -- -- 96
2020-01-20 14:00:00 0.6 10 Oeste 20 Oeste 0.6 -- -- 96
2020-01-20 13:00:00 0.4 13 Oeste 23 Oeste 0.2 -- -- 96
2020-01-20 12:00:00 0.3 10 Oeste 18 Oeste 1 -- -- 96
2020-01-20 11:00:00 0 8 Oeste 16 Oeste 1 -- -- 95
2020-01-20 10:00:00 0 8 Oeste 18 Oeste 0.6 -- -- 92
2020-01-20 09:00:00 1.4 7 Sudoeste 12 Oeste 0 -- -- 74
2020-01-20 08:00:00 1.6 4 Sudoeste 13 Oeste 0 -- -- 69
2020-01-20 07:00:00 1.4 10 Oeste 16 Oeste 0 -- -- 71
2020-01-20 06:00:00 1.2 9 Oeste 28 Oeste 0 -- -- 72
2020-01-20 05:00:00 1.3 7 Oeste 22 Oeste 0 -- -- 72
2020-01-20 04:00:00 1.6 9 Oeste 17 Oeste 0 -- -- 72
2020-01-20 03:00:00 1.5 9 Oeste 18 Oeste 0 -- -- 72
2020-01-20 02:00:00 1.4 6 Oeste 16 Oeste 0 -- -- 72
2020-01-20 01:00:00 1.7 7 Oeste 19 Oeste 0 -- -- 71
2020-01-20 00:00:00 1.7 9 Oeste 19 Noroeste 0 -- -- 71
2020-01-19 23:00:00 2.1 10 Oeste 17 Oeste 0 -- -- 69
2020-01-19 22:00:00 2.5 11 Oeste 26 Oeste 0 -- -- 69
2020-01-19 21:00:00 3.1 14 Oeste 25 Oeste 0 -- -- 68
2020-01-19 20:00:00 3.7 13 Oeste 27 Oeste 0 -- -- 67
2020-01-19 19:00:00 4.8 12 Oeste 24 Oeste 0.2 -- -- 67
2020-01-19 18:00:00 5.9 12 Oeste 27 Oeste 0 -- -- 69
2020-01-19 17:00:00 7.2 10 Noroeste 35 Oeste 0 -- -- 71
2020-01-19 16:00:00 7.8 9 Noroeste 32 Noroeste 0 -- -- 75
2020-01-19 15:00:00 7.1 10 Noroeste 30 Noroeste 0 -- -- 78
2020-01-19 14:00:00 6.5 9 Noroeste 24 Noroeste 0 -- -- 89
2020-01-19 13:00:00 6.3 7 Noroeste 24 Noroeste 0 -- -- 97
2020-01-19 12:00:00 6 5 Noroeste 18 Oeste 0.8 -- -- 97
2020-01-19 11:00:00 5.6 7 Sudoeste 13 Sudoeste 3.8 -- -- 97
2020-01-19 10:00:00 5.4 4 Noroeste 17 Norte 2.6 -- -- 97
2020-01-19 09:00:00 5.3 5 Noroeste 17 Norte 1.2 -- -- 96
2020-01-19 08:00:00 5.3 4 Noroeste 21 Oeste 0.2 -- -- 95
2020-01-19 07:00:00 5.4 7 Noroeste 23 Oeste 0.2 -- -- 93
2020-01-19 06:00:00 6 8 Oeste 30 Oeste 0 -- -- 83
2020-01-19 05:00:00 6.4 17 Oeste 35 Oeste 0 -- -- 80
2020-01-19 04:00:00 6.6 15 Oeste 36 Oeste 0 -- -- 78
2020-01-19 03:00:00 6.6 20 Oeste 33 Oeste 0 -- -- 78
2020-01-19 02:00:00 6.5 21 Oeste 41 Oeste 0 -- -- 77
2020-01-19 01:00:00 7.3 12 Noroeste 39 Oeste 0 -- -- 78
2020-01-19 00:00:00 8.8 13 Oeste 41 Oeste 0 -- -- 77
2020-01-18 23:00:00 7.4 3 Nordeste 15 Este 0 -- -- 79
2020-01-18 22:00:00 7.8 2 Sur 12 Sur 0 -- -- 77
2020-01-18 21:00:00 8.3 4 Sudoeste 8 Sudoeste 0 -- -- 79
2020-01-18 20:00:00 9.1 3 Norte 6 Nordeste 0 -- -- 70
2020-01-18 19:00:00 9.5 2 Nordeste 12 Este 0 -- -- 69
2020-01-18 18:00:00 10.3 6 Este 12 Este 0 -- -- 66
2020-01-18 17:00:00 10.9 8 Este 14 Este 0 -- -- 61
2020-01-18 16:00:00 11 9 Este 13 Este 0 -- -- 60
2020-01-18 15:00:00 11.4 12 Este 18 Este 0 -- -- 57
2020-01-18 14:00:00 11.3 6 Nordeste 18 Nordeste 0 -- -- 60
2020-01-18 13:00:00 9.5 6 Nordeste 14 Nordeste 0 -- -- 67
2020-01-18 12:00:00 7.8 5 Nordeste 11 Nordeste 0 -- -- 74
2020-01-18 11:00:00 6 4 Este 6 Nordeste 0 -- -- 75
2020-01-18 10:00:00 4.7 2 Noroeste 13 Oeste 0 -- -- 78
2020-01-18 09:00:00 3.8 7 Este 11 Este 0 -- -- 80
2020-01-18 08:00:00 4 4 Sudoeste 14 Sudoeste 0 -- -- 77
2020-01-18 07:00:00 3.7 3 Sudoeste 8 Sudoeste 0 -- -- 78
2020-01-18 06:00:00 4.2 3 Oeste 18 Sudoeste 0 -- -- 76
2020-01-18 05:00:00 4.6 12 Sudoeste 18 Sudoeste 0 -- -- 75
2020-01-18 04:00:00 4.6 13 Sudoeste 18 Sudoeste 0 -- -- 77
2020-01-18 03:00:00 4.9 15 Sudoeste 20 Sudoeste 0 -- -- 76
2020-01-18 02:00:00 5.6 15 Sudoeste 20 Sudoeste 0 -- -- 72
2020-01-18 01:00:00 6.3 11 Sudoeste 19 Sudoeste 0 -- -- 70
2020-01-18 00:00:00 6.8 15 Oeste 26 Oeste 0 -- -- 70
2020-01-17 23:00:00 7.1 18 Oeste 27 Oeste 0 -- -- 70
2020-01-17 22:00:00 7.4 18 Oeste 27 Oeste 0 -- -- 70
2020-01-17 21:00:00 7.7 12 Oeste 23 Oeste 0 -- -- 71
2020-01-17 20:00:00 8.5 11 Oeste 20 Oeste 0 -- -- 70
2020-01-17 19:00:00 9.3 13 Oeste 28 Noroeste 0 -- -- 66
2020-01-17 18:00:00 11 8 Noroeste 28 Norte 0 -- -- 61
2020-01-17 17:00:00 13.8 12 Norte 52 Oeste 0 -- -- 54
2020-01-17 16:00:00 16.2 31 Oeste 51 Oeste 0 -- -- 40
2020-01-17 15:00:00 15.5 20 Oeste 53 Oeste 0 -- -- 46
2020-01-17 14:00:00 16.6 27 Oeste 67 Oeste 0 -- -- 44
2020-01-17 13:00:00 16.3 30 Oeste 55 Oeste 0 -- -- 46
2020-01-17 12:00:00 16.2 19 Oeste 35 Oeste 0 -- -- 48
2020-01-17 11:00:00 13.2 9 Oeste 18 Oeste 0 -- -- 59
2020-01-17 10:00:00 10 4 Noroeste 14 Oeste 0 -- -- 68
2020-01-17 09:00:00 6.8 5 Oeste 21 Sudoeste 0 -- -- 74
2020-01-17 08:00:00 3.8 6 Sudoeste 10 Sudoeste 0 -- -- 88
2020-01-17 07:00:00 3.5 7 Sudoeste 16 Oeste 0 -- -- 93
2020-01-17 06:00:00 3.7 5 Sur 8 Sudoeste 0 -- -- 93
2020-01-17 05:00:00 4.2 0 Calma 7 Oeste 0 -- -- 91
2020-01-17 04:00:00 4 2 Sur 6 Oeste 0 -- -- 92
2020-01-17 03:00:00 4 0 Calma 7 Oeste 0 -- -- 90
2020-01-17 02:00:00 4.5 0 Calma 7 Sudoeste 0 -- -- 90
2020-01-17 01:00:00 3.8 3 Sudeste 6 Este 0 -- -- 90
2020-01-17 00:00:00 4.9 2 Norte 8 Norte 0 -- -- 86
2020-01-16 23:00:00 5.5 3 Sur 10 Sudoeste 0 -- -- 88
2020-01-16 22:00:00 4.6 4 Sudoeste 10 Sudoeste 0 -- -- 88
2020-01-16 21:00:00 5.8 6 Sudoeste 10 Sudoeste 0 -- -- 87
2020-01-16 20:00:00 6.8 2 Oeste 5 Oeste 0 -- -- 80
2020-01-16 19:00:00 8.3 0 Calma 8 Este 0 -- -- 77
2020-01-16 18:00:00 9.4 0 Calma 4 Norte 0 -- -- 72
2020-01-16 17:00:00 10.3 3 Nordeste 6 Nordeste 0 -- -- 71
2020-01-16 16:00:00 10.7 5 Este 8 Este 0 -- -- 68
2020-01-16 15:00:00 11.9 4 Nordeste 10 Nordeste 0 -- -- 64
2020-01-16 14:00:00 10.1 4 Nordeste 12 Este 0 -- -- 69
2020-01-16 13:00:00 8 9 Nordeste 13 Este 0 -- -- 73
2020-01-16 12:00:00 7.2 6 Nordeste 9 Nordeste 0 -- -- 76
2020-01-16 11:00:00 5.1 3 Nordeste 6 Este 0 -- -- 84
2020-01-16 10:00:00 2.2 3 Sudeste 8 Este 0 -- -- 93
2020-01-16 09:00:00 -0.2 5 Sudoeste 8 Sudoeste 0 -- -- 97
2020-01-16 08:00:00 -0.3 0 Calma 4 Sudoeste 0 -- -- 96
2020-01-16 07:00:00 -0.7 4 Sudoeste 8 Sudoeste 0 -- -- 97
2020-01-16 06:00:00 -0.7 4 Sudoeste 5 Sudoeste 0 -- -- 96
2020-01-16 05:00:00 -0.4 0 Calma 5 Sudoeste 0 -- -- 95
2020-01-16 04:00:00 -0.1 3 Oeste 8 Nordeste 0 -- -- 94
2020-01-16 03:00:00 0.9 4 Este 14 Nordeste 0 -- -- 94
2020-01-16 02:00:00 2.2 4 Sur 13 Sudoeste 0 -- -- 92
2020-01-16 01:00:00 2.4 0 Calma 5 Norte 0 -- -- 93
2020-01-16 00:00:00 2.5 3 Nordeste 8 Nordeste 0 -- -- 90
2020-01-15 23:00:00 3.1 3 Este 13 Nordeste 0 -- -- 89
2020-01-15 22:00:00 3.1 6 Este 26 Nordeste 0 -- -- 89
2020-01-15 21:00:00 3.5 6 Oeste 10 Sudoeste 0 -- -- 89
2020-01-15 20:00:00 3.7 3 Sudoeste 12 Sur 0 -- -- 88
2020-01-15 19:00:00 4.3 3 Este 6 Sur 0 -- -- 83
2020-01-15 18:00:00 5.8 5 Nordeste 10 Nordeste 0 -- -- 79
2020-01-15 17:00:00 7.9 3 Este 6 Norte 0 -- -- 73
2020-01-15 16:00:00 7.4 2 Norte 8 Nordeste 0 -- -- 74
2020-01-15 15:00:00 6.4 3 Nordeste 12 Nordeste 0 -- -- 79
2020-01-15 14:00:00 3.5 7 Nordeste 11 Nordeste 0 -- -- 87
2020-01-15 13:00:00 1.4 4 Nordeste 10 Nordeste 0 -- -- 93
2020-01-15 12:00:00 -0.7 3 Nordeste 9 Nordeste 0 -- -- 96
2020-01-15 11:00:00 -2.5 4 Nordeste 9 Nordeste 0 -- -- 97
2020-01-15 10:00:00 -3.7 0 Calma 6 Nordeste 0 -- -- 96
2020-01-15 09:00:00 -4.7 2 Sur 4 Sur 0 -- -- 96
2020-01-15 08:00:00 -4.8 0 Calma 7 Este 0 -- -- 96
2020-01-15 07:00:00 -5.4 0 Calma 3 Norte 0 -- -- 96
2020-01-15 06:00:00 -5.6 0 Calma 3 Norte 0 -- -- 95
2020-01-15 05:00:00 -5 0 Calma 5 Nordeste 0 -- -- 93
2020-01-15 04:00:00 -3.7 0 Calma 8 Norte 0 -- -- 92
2020-01-15 03:00:00 -2.5 0 Calma 5 Norte 0 -- -- 89
2020-01-15 02:00:00 -1.2 3 Este 8 Sudoeste 0 -- -- 90
2020-01-15 01:00:00 -1 3 Este 8 Sudeste 0 -- -- 92
2020-01-15 00:00:00 -0.8 4 Sudoeste 8 Sudoeste 0 -- -- 94
2020-01-14 23:00:00 -1.3 3 Sudoeste 8 Sudoeste 0 -- -- 95
2020-01-14 22:00:00 -0.9 5 Sudoeste 10 Sudoeste 0 -- -- 96
2020-01-14 21:00:00 -1.1 7 Sudoeste 9 Sudoeste 0 -- -- 95
2020-01-14 20:00:00 -0.2 4 Sudoeste 6 Sudoeste 0 -- -- 95
2020-01-14 19:00:00 0.4 0 Calma 2 Este 0 -- -- 91
2020-01-14 18:00:00 1.8 2 Este 6 Este 0 -- -- 91
2020-01-14 17:00:00 3.1 3 Nordeste 9 Nordeste 0 -- -- 87
2020-01-14 16:00:00 3.3 6 Nordeste 10 Nordeste 0 -- -- 87
2020-01-14 15:00:00 1.7 6 Nordeste 11 Nordeste 0 -- -- 96
2020-01-14 14:00:00 0 3 Nordeste 7 Nordeste 0 -- -- 98
2020-01-14 13:00:00 -1.8 0 Calma -- -- 0 -- -- 98
2020-01-14 12:00:00 -2.9 0 Calma -- -- 0 -- -- 97
2020-01-14 11:00:00 -3.6 0 Calma -- -- 0 -- -- 97
2020-01-14 10:00:00 -4.9 0 Calma -- -- 0 -- -- 96
2020-01-14 09:00:00 -5.9 0 Calma -- -- 0 -- -- 96
2020-01-14 08:00:00 -6 0 Calma -- -- 0 -- -- 95
2020-01-14 07:00:00 -5.5 0 Calma -- -- 0 -- -- 96
2020-01-14 06:00:00 -4.9 0 Calma -- -- 0 -- -- 97
2020-01-14 05:00:00 -4.7 0 Calma -- -- 0 -- -- 97
2020-01-14 04:00:00 -4.4 0 Calma -- -- 0 -- -- 97
2020-01-14 03:00:00 -3.9 0 Calma -- -- 0 -- -- 97
2020-01-14 02:00:00 -3.5 0 Calma -- -- 0 -- -- 98
2020-01-14 01:00:00 -3.4 0 Calma -- -- 0 -- -- 97
2020-01-14 00:00:00 -2.9 0 Calma -- -- 0 -- -- 97
2020-01-13 23:00:00 -2.1 0 Calma 8 Este 0 -- -- 98
2020-01-13 22:00:00 -2.4 0 Calma 4 Nordeste 0 -- -- 97
2020-01-13 21:00:00 -1.8 3 Este 5 Sudeste 0 -- -- 97
2020-01-13 20:00:00 -1.4 3 Este 5 Este 0 -- -- 97
2020-01-13 19:00:00 -1 4 Nordeste 6 Nordeste 0 -- -- 96
2020-01-13 18:00:00 -0.3 0 Calma 6 Sudeste 0 -- -- 96
2020-01-13 17:00:00 0.1 3 Nordeste 9 Este 0 -- -- 96
2020-01-13 16:00:00 0.5 3 Nordeste 8 Nordeste 0 -- -- 97
2020-01-13 15:00:00 -0.4 0 Calma 5 Nordeste 0 -- -- 97
2020-01-13 14:00:00 -0.6 2 Nordeste 5 Norte 0 -- -- 97
2020-01-13 13:00:00 -1 0 Calma 6 Nordeste 0 -- -- 97
2020-01-13 12:00:00 -1.6 3 Nordeste 8 Este 0 -- -- 97
2020-01-13 11:00:00 -2.8 2 Este 5 Este 0 -- -- 97
2020-01-13 10:00:00 -3.2 0 Calma 4 Este 0 -- -- 96
2020-01-13 09:00:00 -4 3 Este 4 Este 0 -- -- 96
2020-01-13 08:00:00 -4.1 2 Este 3 Este 0 -- -- 96
2020-01-13 07:00:00 -3.9 0 Calma 5 Este 0 -- -- 96
2020-01-13 06:00:00 -3.8 3 Nordeste 6 Este 0 -- -- 96
2020-01-13 05:00:00 -4.1 0 Calma 4 Este 0 -- -- 96
2020-01-13 04:00:00 -4.2 0 Calma 3 Este 0 -- -- 96
2020-01-13 03:00:00 -4.4 0 Calma 4 Este 0 -- -- 95
2020-01-13 02:00:00 -3.9 0 Calma 2 Sudeste 0 -- -- 94
2020-01-13 01:00:00 -3.5 0 Calma 5 Nordeste 0 -- -- 93
2020-01-13 00:00:00 -2.4 4 Nordeste 6 Nordeste 0 -- -- 90
2020-01-12 23:00:00 -0.9 0 Calma 8 Oeste 0 -- -- 86
2020-01-12 22:00:00 -0.1 8 Sudoeste 10 Sudoeste 0 -- -- 85
2020-01-12 21:00:00 1.7 0 Calma 5 Este 0 -- -- 79
2020-01-12 20:00:00 3.5 0 Calma 2 Nordeste 0 -- -- 72
2020-01-12 19:00:00 5.2 0 Calma 5 Este 0 -- -- 65
2020-01-12 18:00:00 6.8 5 Este 9 Este 0 -- -- 60
2020-01-12 17:00:00 8 9 Este 14 Este 0 -- -- 57
2020-01-12 16:00:00 9.1 9 Este 17 Nordeste 0 -- -- 53
2020-01-12 15:00:00 10.5 5 Nordeste 12 Nordeste 0 -- -- 45
2020-01-12 14:00:00 9.8 5 Nordeste 13 Nordeste 0 -- -- 48
2020-01-12 13:00:00 8.7 4 Nordeste 9 Nordeste 0 -- -- 49
2020-01-12 12:00:00 6.9 3 Este 9 Este 0 -- -- 57
2020-01-12 11:00:00 4.4 6 Nordeste 9 Nordeste 0 -- -- 62
2020-01-12 10:00:00 3.1 0 Calma 11 Sudoeste 0 -- -- 60
2020-01-12 09:00:00 -0.2 9 Sudoeste 14 Sudoeste 0 -- -- 68
2020-01-12 08:00:00 -1.5 10 Sudoeste 15 Sudoeste 0 -- -- 75
2020-01-12 07:00:00 -1.3 8 Sudoeste 14 Sudoeste 0 -- -- 75
2020-01-12 06:00:00 -0.2 5 Sudoeste 8 Sudoeste 0 -- -- 71
2020-01-12 05:00:00 0 4 Sudoeste 8 Sudoeste 0 -- -- 72
2020-01-12 04:00:00 0.8 3 Sur 12 Sudoeste 0 -- -- 72
2020-01-12 03:00:00 1.8 7 Sudoeste 18 Sudoeste 0 -- -- 66
2020-01-12 02:00:00 1.9 14 Sudoeste 20 Sudoeste 0 -- -- 68
2020-01-12 01:00:00 1.6 14 Sudoeste 18 Sudoeste 0 -- -- 73
2020-01-12 00:00:00 2 15 Sudoeste 18 Sudoeste 0 -- -- 73
2020-01-11 23:00:00 2.3 12 Sudoeste 19 Sudoeste 0 -- -- 74
2020-01-11 22:00:00 2.9 7 Sudoeste 11 Sudoeste 0 -- -- 73
2020-01-11 21:00:00 3.5 7 Sudoeste 12 Sudoeste 0 -- -- 71
2020-01-11 20:00:00 5 6 Sudoeste 10 Sudoeste 0 -- -- 67
2020-01-11 19:00:00 7 4 Sudoeste 8 Sudoeste 0 -- -- 62
2020-01-11 18:00:00 10 0 Calma 9 Norte 0 -- -- 53
2020-01-11 17:00:00 11.9 5 Norte 14 Noroeste 0 -- -- 47
2020-01-11 16:00:00 13.1 5 Noroeste 18 Norte 0 -- -- 43
2020-01-11 15:00:00 13.9 5 Noroeste 16 Noroeste 0 -- -- 44
2020-01-11 14:00:00 13.3 6 Noroeste 21 Oeste 0 -- -- 46
2020-01-11 13:00:00 12.4 5 Noroeste 24 Noroeste 0 -- -- 49
2020-01-11 12:00:00 11.2 11 Noroeste 26 Noroeste 0 -- -- 52
2020-01-11 11:00:00 9.7 14 Oeste 25 Oeste 0 -- -- 58
2020-01-11 10:00:00 5.5 12 Sudoeste 17 Sudoeste 0 -- -- 70
2020-01-11 09:00:00 4.1 12 Sudoeste 17 Sudoeste 0 -- -- 74
2020-01-11 08:00:00 3.2 13 Sudoeste 17 Sudoeste 0 -- -- 79
2020-01-11 07:00:00 4.2 11 Sudoeste 17 Sudoeste 0 -- -- 77
2020-01-11 06:00:00 4.4 13 Sudoeste 18 Sudoeste 0 -- -- 78
2020-01-11 05:00:00 4.7 11 Oeste 21 Oeste 0 -- -- 77
2020-01-11 04:00:00 4.9 14 Oeste 23 Oeste 0 -- -- 77
2020-01-11 03:00:00 4.9 14 Oeste 25 Oeste 0 -- -- 79
2020-01-11 02:00:00 5.3 16 Oeste 25 Oeste 0 -- -- 79
2020-01-11 01:00:00 5.6 15 Oeste 24 Oeste 0 -- -- 79
2020-01-11 00:00:00 5.8 12 Oeste 22 Oeste 0 -- -- 78
2020-01-10 23:00:00 6.1 12 Oeste 26 Oeste 0 -- -- 78
2020-01-10 22:00:00 6.4 17 Oeste 27 Oeste 0 -- -- 78
2020-01-10 21:00:00 6.5 13 Oeste 23 Oeste 0 -- -- 79
2020-01-10 20:00:00 7.1 14 Oeste 24 Oeste 0 -- -- 77
2020-01-10 19:00:00 7.6 17 Oeste 26 Oeste 0 -- -- 75
2020-01-10 18:00:00 8.9 10 Noroeste 27 Noroeste 0 -- -- 72
2020-01-10 17:00:00 10.2 6 Noroeste 26 Noroeste 0 -- -- 68
2020-01-10 16:00:00 11.2 10 Noroeste 30 Noroeste 0 -- -- 64
2020-01-10 15:00:00 11.5 9 Noroeste 31 Noroeste 0 -- -- 62
2020-01-10 14:00:00 11.3 9 Noroeste 35 Noroeste 0 -- -- 62
2020-01-10 13:00:00 11.9 9 Noroeste 37 Norte 0 -- -- 59
2020-01-10 12:00:00 10.9 12 Noroeste 35 Norte 0 -- -- 63
2020-01-10 11:00:00 10 7 Noroeste 37 Noroeste 0 -- -- 68
2020-01-10 10:00:00 8.4 13 Oeste 35 Oeste 0 -- -- 73
2020-01-10 09:00:00 6.8 20 Oeste 35 Oeste 0 -- -- 76
2020-01-10 08:00:00 6.9 23 Oeste 38 Oeste 0 -- -- 78
2020-01-10 07:00:00 7.5 22 Oeste 37 Oeste 0 -- -- 79
2020-01-10 06:00:00 7.3 18 Oeste 39 Oeste 0 -- -- 85
2020-01-10 05:00:00 6.6 19 Oeste 31 Oeste 0.2 -- -- 95
2020-01-10 04:00:00 5.3 17 Oeste 31 Oeste 0 -- -- 100
2020-01-10 03:00:00 1.8 15 Sudoeste 22 Oeste 0 -- -- 99
2020-01-10 02:00:00 2 9 Oeste 14 Oeste 0 -- -- 99
2020-01-10 01:00:00 1.7 0 Calma 5 Norte 0 -- -- 99
2020-01-10 00:00:00 1.8 0 Calma 8 Sudoeste 0 -- -- 99
2020-01-09 23:00:00 1.7 4 Sudoeste 10 Sudoeste 0 -- -- 98
2020-01-09 22:00:00 1.7 0 Calma 13 Oeste 0 -- -- 99
2020-01-09 21:00:00 2 3 Noroeste 10 Norte 0 -- -- 98
2020-01-09 20:00:00 2.4 3 Nordeste 11 Nordeste 0 -- -- 98
2020-01-09 19:00:00 2.6 5 Este 9 Este 0 -- -- 98
2020-01-09 18:00:00 2.8 0 Calma 8 Este 0 -- -- 98
2020-01-09 17:00:00 3.1 2 Nordeste 12 Nordeste 0 -- -- 99
2020-01-09 16:00:00 3.1 6 Este 13 Este 0 -- -- 99
2020-01-09 15:00:00 2.4 3 Este 6 Este 0 -- -- 99
2020-01-09 14:00:00 2.3 0 Calma 5 Nordeste 0 -- -- 99
2020-01-09 13:00:00 2.1 2 Oeste 7 Norte 0 -- -- 99
2020-01-09 12:00:00 1.6 2 Norte 8 Este 0 -- -- 99
2020-01-09 11:00:00 1.3 0 Calma 4 Norte 0 -- -- 99
2020-01-09 10:00:00 1 0 Calma 5 Noroeste 0 -- -- 99
2020-01-09 09:00:00 0.7 2 Norte 5 Oeste 0 -- -- 99
2020-01-09 08:00:00 0.5 3 Sudoeste 6 Oeste 0 -- -- 99
2020-01-09 07:00:00 0.6 3 Sudoeste 5 Oeste 0 -- -- 99
2020-01-09 06:00:00 0.8 3 Sudoeste 6 Oeste 0 -- -- 99
2020-01-09 05:00:00 1 2 Oeste 6 Sudeste 0 -- -- 98
2020-01-09 04:00:00 1.2 2 Sur 10 Sudoeste 0 -- -- 99
2020-01-09 03:00:00 1.2 6 Sudoeste 10 Sudoeste 0 -- -- 98
2020-01-09 02:00:00 1.8 3 Nordeste 6 Sur 0 -- -- 99
2020-01-09 01:00:00 1.8 3 Sudeste 6 Sudeste 0 -- -- 98
2020-01-09 00:00:00 2.2 2 Sudeste 5 Sudeste 0 -- -- 98
2020-01-08 23:00:00 2.2 3 Sudeste 8 Sudeste 0 -- -- 98
2020-01-08 22:00:00 2.3 2 Sudoeste 4 Sur 0 -- -- 98
2020-01-08 21:00:00 2.4 0 Calma 8 Sudeste 0 -- -- 98
2020-01-08 20:00:00 2.6 0 Calma 7 Sudeste 0 -- -- 98
2020-01-08 19:00:00 2.8 0 Calma 4 Sudoeste 0 -- -- 98
2020-01-08 18:00:00 2.7 2 Oeste 6 Sur 0 -- -- 98
2020-01-08 17:00:00 2.9 0 Calma 10 Nordeste 0 -- -- 98
2020-01-08 16:00:00 3 4 Este 8 Este 0 -- -- 98
2020-01-08 15:00:00 2.8 0 Calma 6 Sudeste 0 -- -- 99
2020-01-08 14:00:00 2.4 2 Sur 9 Este 0 -- -- 99
2020-01-08 13:00:00 1.9 5 Sudeste 10 Este 0 -- -- 99
2020-01-08 12:00:00 1.4 4 Este 8 Este 0 -- -- 99
2020-01-08 11:00:00 1.2 0 Calma 7 Este 0 -- -- 99
2020-01-08 10:00:00 0.4 5 Este 8 Sudeste 0 -- -- 99
2020-01-08 09:00:00 -0.2 4 Sudeste 7 Sudeste 0 -- -- 99
2020-01-08 08:00:00 -0.1 4 Este 9 Este 0 -- -- 98
2020-01-08 07:00:00 -0.3 3 Sudoeste 5 Sudoeste 0 -- -- 98
2020-01-08 06:00:00 -0.2 3 Sudeste 10 Nordeste 0 -- -- 98
2020-01-08 05:00:00 0.4 3 Nordeste 6 Este 0 -- -- 98
2020-01-08 04:00:00 0.2 2 Sur 5 Sudeste 0 -- -- 98
2020-01-08 03:00:00 0.5 0 Calma 7 Este 0 -- -- 98
2020-01-08 02:00:00 0.8 0 Calma 3 Noroeste 0 -- -- 98
2020-01-08 01:00:00 1.1 0 Calma 3 Norte 0 -- -- 98
2020-01-08 00:00:00 1.2 0 Calma 3 Oeste 0 -- -- 98
2020-01-07 23:00:00 1.3 0 Calma 4 Nordeste 0 -- -- 98
2020-01-07 22:00:00 1.4 3 Nordeste 9 Nordeste 0 -- -- 97
2020-01-07 21:00:00 1.7 3 Nordeste 6 Este 0 -- -- 97
2020-01-07 20:00:00 1.9 4 Nordeste 8 Este 0 -- -- 97
2020-01-07 19:00:00 2.2 4 Nordeste 9 Este 0 -- -- 96
2020-01-07 18:00:00 2.4 4 Nordeste 9 Nordeste 0 -- -- 94
2020-01-07 17:00:00 2.6 2 Este 9 Este 0 -- -- 93
2020-01-07 16:00:00 3 3 Nordeste 11 Nordeste 0 -- -- 91
2020-01-07 15:00:00 3.5 3 Norte 14 Nordeste 0 -- -- 90
2020-01-07 14:00:00 3.3 2 Oeste 5 Oeste 0 -- -- 97
2020-01-07 13:00:00 1.6 0 Calma 6 Noroeste 0 -- -- 98
2020-01-07 12:00:00 0.4 0 Calma 5 Noroeste 0 -- -- 99
2020-01-07 11:00:00 -0.7 0 Calma -- -- 0 -- -- 99
2020-01-07 10:00:00 -1.1 0 Calma -- -- 0 -- -- 98
2020-01-07 09:00:00 -1.6 0 Calma -- -- 0 -- -- 98
2020-01-07 08:00:00 -0.9 0 Calma -- -- 0 -- -- 98
2020-01-07 07:00:00 -0.4 0 Calma -- -- 0 -- -- 98
2020-01-07 06:00:00 -0.2 0 Calma 5 Oeste 0 -- -- 98
2020-01-07 05:00:00 0 3 Oeste 6 Oeste 0 -- -- 98
2020-01-07 04:00:00 0.5 0 Calma 5 Este 0 -- -- 98
2020-01-07 03:00:00 0 2 Oeste 6 Sur 0 -- -- 98
2020-01-07 02:00:00 0.6 2 Sur 6 Sudoeste 0 -- -- 98
2020-01-07 01:00:00 1 3 Sudoeste 6 Sudoeste 0 -- -- 98
2020-01-07 00:00:00 1.2 3 Este 8 Este 0 -- -- 98
2020-01-06 23:00:00 1.3 4 Sur 10 Sur 0 -- -- 97
2020-01-06 22:00:00 1.9 2 Oeste 9 Oeste 0 -- -- 97
2020-01-06 21:00:00 2 3 Noroeste 9 Oeste 0 -- -- 97
2020-01-06 20:00:00 2.1 0 Calma 7 Noroeste 0 -- -- 97
2020-01-06 19:00:00 2.4 0 Calma 3 Noroeste 0 -- -- 97
2020-01-06 18:00:00 2.5 0 Calma 7 Norte 0 -- -- 97
2020-01-06 17:00:00 2.8 2 Noroeste 8 Noroeste 0 -- -- 97
2020-01-06 16:00:00 2.9 2 Noroeste 6 Oeste 0 -- -- 97
2020-01-06 15:00:00 2.6 0 Calma 10 Oeste 0 -- -- 98
2020-01-06 14:00:00 2.5 3 Noroeste 9 Oeste 0 -- -- 98
2020-01-06 13:00:00 2.4 2 Noroeste 8 Noroeste 0 -- -- 98
2020-01-06 12:00:00 1.7 0 Calma 5 Oeste 0 -- -- 98
2020-01-06 11:00:00 1 4 Sudoeste 8 Sudoeste 0 -- -- 98
2020-01-06 10:00:00 0.7 3 Sudoeste 4 Sudoeste 0 -- -- 98